createdAt,value
2023-03-17T00:00:35.080Z,36.80
2023-03-17T00:03:08.190Z,35.50
2023-03-17T00:05:41.292Z,32.50
2023-03-17T00:08:23.826Z,34.70
2023-03-17T00:10:57.052Z,36.10
2023-03-17T00:13:30.943Z,38.00
2023-03-17T00:16:05.065Z,37.10
2023-03-17T00:18:41.495Z,36.00
2023-03-17T00:21:16.740Z,38.50
2023-03-17T00:23:52.329Z,36.20
2023-03-17T00:26:25.140Z,37.90
2023-03-17T00:28:59.159Z,36.00
2023-03-17T00:31:32.918Z,38.60
2023-03-17T00:34:13.991Z,37.80
2023-03-17T00:36:47.235Z,37.60
2023-03-17T00:39:20.938Z,38.70
2023-03-17T00:41:53.669Z,40.30
2023-03-17T00:44:27.043Z,37.70
2023-03-17T00:47:03.649Z,39.10
2023-03-17T00:49:36.482Z,40.00
2023-03-17T00:52:16.273Z,40.20
2023-03-17T00:54:49.729Z,35.80
2023-03-17T00:57:23.117Z,41.60
2023-03-17T00:59:57.800Z,37.20
2023-03-17T01:02:31.241Z,33.70
2023-03-17T01:05:07.419Z,39.40
2023-03-17T01:07:41.021Z,43.10
2023-03-17T01:10:18.782Z,40.00
2023-03-17T01:12:51.711Z,41.10
2023-03-17T01:15:25.772Z,35.20
2023-03-17T01:17:58.784Z,37.10
2023-03-17T01:20:32.994Z,38.00
2023-03-17T01:23:05.965Z,37.20
2023-03-17T01:25:39.980Z,34.10
2023-03-17T01:28:13.351Z,34.40
2023-03-17T01:30:47.259Z,33.80
2023-03-17T01:33:20.951Z,33.60
2023-03-17T01:35:54.063Z,32.30
2023-03-17T01:38:26.807Z,35.30
2023-03-17T01:40:59.780Z,29.80
2023-03-17T01:43:33.119Z,29.80
2023-03-17T01:46:22.181Z,30.80
2023-03-17T01:49:00.355Z,29.00
2023-03-17T01:51:35.110Z,29.70
2023-03-17T01:54:10.835Z,27.70
2023-03-17T01:56:45.517Z,28.40
2023-03-17T01:59:22.809Z,26.40
2023-03-17T02:01:58.975Z,23.00
2023-03-17T02:04:31.775Z,26.80
2023-03-17T02:07:05.956Z,27.10
2023-03-17T02:09:39.085Z,24.40
2023-03-17T02:12:14.043Z,26.30
2023-03-17T02:14:47.012Z,25.60
2023-03-17T02:17:22.426Z,28.10
2023-03-17T02:19:55.683Z,26.80
2023-03-17T02:22:29.097Z,26.80
2023-03-17T02:25:04.902Z,24.70
2023-03-17T02:27:42.880Z,27.10
2023-03-17T02:30:19.344Z,29.90
2023-03-17T02:32:52.995Z,26.60
2023-03-17T02:35:31.774Z,27.90
2023-03-17T02:38:05.750Z,27.30
2023-03-17T02:40:38.772Z,29.80
2023-03-17T02:43:12.040Z,27.00
2023-03-17T02:45:44.681Z,27.30
2023-03-17T02:48:18.239Z,28.40
2023-03-17T02:50:52.041Z,27.40
2023-03-17T02:53:29.556Z,29.40
2023-03-17T02:56:02.624Z,27.90
2023-03-17T02:58:35.941Z,29.20
2023-03-17T03:01:09.956Z,30.30
2023-03-17T03:03:43.267Z,30.60
2023-03-17T03:06:16.756Z,32.20
2023-03-17T03:08:49.996Z,30.90
2023-03-17T03:11:22.789Z,25.70
2023-03-17T03:13:56.475Z,28.60
2023-03-17T03:16:29.362Z,31.10
2023-03-17T03:19:02.886Z,31.00
2023-03-17T03:21:36.984Z,29.60
2023-03-17T03:24:11.162Z,29.20
2023-03-17T03:26:45.234Z,28.80
2023-03-17T03:29:18.312Z,29.70
2023-03-17T03:31:51.512Z,29.70
2023-03-17T03:34:24.569Z,29.40
2023-03-17T03:36:57.754Z,30.40
2023-03-17T03:39:31.235Z,29.50
2023-03-17T03:42:04.115Z,25.60
2023-03-17T03:44:37.872Z,26.50
2023-03-17T03:47:12.546Z,28.10
2023-03-17T03:49:50.479Z,27.60
2023-03-17T03:52:23.767Z,27.70
2023-03-17T03:54:56.859Z,26.20
2023-03-17T03:57:29.833Z,26.70
2023-03-17T04:00:02.622Z,27.30
2023-03-17T04:02:45.490Z,32.10
2023-03-17T04:05:19.037Z,30.30
2023-03-17T04:07:51.928Z,27.50
2023-03-17T04:10:25.058Z,30.60
2023-03-17T04:12:58.478Z,29.80
2023-03-17T04:15:38.803Z,31.50
2023-03-17T04:18:11.780Z,32.70
2023-03-17T04:20:44.433Z,32.20
2023-03-17T04:23:18.223Z,32.70
2023-03-17T04:25:53.564Z,32.00
2023-03-17T04:28:31.691Z,31.30
2023-03-17T04:31:04.758Z,34.50
2023-03-17T04:33:37.863Z,34.70
2023-03-17T04:36:14.246Z,34.40
2023-03-17T04:38:47.792Z,32.30
2023-03-17T04:41:21.551Z,34.40
2023-03-17T04:43:54.699Z,35.50
2023-03-17T04:46:31.197Z,35.00
2023-03-17T04:49:04.369Z,32.10
2023-03-17T04:51:38.078Z,30.10
2023-03-17T04:54:11.476Z,30.60
2023-03-17T04:56:44.796Z,36.30
2023-03-17T04:59:17.915Z,30.30
2023-03-17T05:01:51.111Z,34.00
2023-03-17T05:04:31.621Z,31.30
2023-03-17T05:07:05.373Z,29.70
2023-03-17T05:09:38.710Z,29.20
2023-03-17T05:12:14.591Z,33.10
2023-03-17T05:14:48.145Z,29.60
2023-03-17T05:17:20.967Z,30.70
2023-03-17T05:19:53.911Z,29.30
2023-03-17T05:22:27.423Z,29.40
2023-03-17T05:25:00.393Z,30.20
2023-03-17T05:27:33.970Z,30.40
2023-03-17T05:30:08.748Z,27.20
2023-03-17T05:32:42.217Z,29.70
2023-03-17T05:35:15.294Z,28.10
2023-03-17T05:37:48.984Z,29.70
2023-03-17T05:40:23.800Z,28.90
2023-03-17T05:42:57.205Z,29.90
2023-03-17T05:45:30.955Z,30.90
2023-03-17T05:48:10.289Z,29.40
2023-03-17T05:50:43.901Z,29.00
2023-03-17T05:53:17.648Z,30.30
2023-03-17T05:55:50.887Z,29.30
2023-03-17T05:58:24.148Z,31.20
2023-03-17T06:01:00.672Z,26.80
2023-03-17T06:03:35.223Z,30.70
2023-03-17T06:06:09.930Z,29.50
2023-03-17T06:08:42.987Z,28.80
2023-03-17T06:11:15.948Z,29.30
2023-03-17T06:13:54.901Z,28.70
2023-03-17T06:16:30.963Z,28.60
2023-03-17T06:19:03.915Z,27.90
2023-03-17T06:21:37.150Z,31.90
2023-03-17T06:24:10.943Z,30.60
2023-03-17T06:26:43.907Z,29.20
2023-03-17T06:29:16.888Z,29.10
2023-03-17T06:31:51.344Z,27.50
2023-03-17T06:34:27.768Z,27.10
2023-03-17T06:37:01.001Z,28.30
2023-03-17T06:39:34.030Z,29.00
2023-03-17T06:42:08.552Z,29.70
2023-03-17T06:44:41.964Z,28.80
2023-03-17T06:47:15.767Z,24.70
2023-03-17T06:49:48.934Z,27.20
2023-03-17T06:52:23.560Z,22.60
2023-03-17T06:54:56.389Z,22.60
2023-03-17T06:57:29.942Z,24.10
2023-03-17T07:00:02.509Z,24.00
2023-03-17T07:02:35.699Z,24.40
2023-03-17T07:05:11.049Z,22.00
2023-03-17T07:07:44.087Z,23.60
2023-03-17T07:10:17.603Z,22.70
2023-03-17T07:12:53.105Z,23.20
2023-03-17T07:15:26.881Z,24.80
2023-03-17T07:17:59.888Z,23.50
2023-03-17T07:20:36.523Z,23.60
2023-03-17T07:23:10.391Z,23.70
2023-03-17T07:25:47.393Z,22.20
2023-03-17T07:28:27.324Z,23.40
2023-03-17T07:31:03.164Z,24.20
2023-03-17T07:33:36.624Z,22.80
2023-03-17T07:36:11.263Z,25.90
2023-03-17T07:38:46.915Z,22.70
2023-03-17T07:41:20.662Z,23.40
2023-03-17T07:43:54.125Z,24.40
2023-03-17T07:46:27.992Z,25.60
2023-03-17T07:49:08.067Z,25.90
2023-03-17T07:51:43.730Z,24.60
2023-03-17T07:54:18.351Z,24.90
2023-03-17T07:56:51.540Z,24.20
2023-03-17T07:59:24.625Z,24.70
2023-03-17T08:01:58.390Z,23.10
2023-03-17T08:04:31.569Z,26.50
2023-03-17T08:07:06.667Z,23.50
2023-03-17T08:09:40.342Z,23.90
2023-03-17T08:12:14.822Z,24.20
2023-03-17T08:14:51.407Z,23.40
2023-03-17T08:17:27.430Z,22.00
2023-03-17T08:20:00.882Z,22.50
2023-03-17T08:22:39.172Z,23.20
2023-03-17T08:25:13.025Z,21.70
2023-03-17T08:27:45.943Z,23.30
2023-03-17T08:30:21.104Z,20.80
2023-03-17T08:32:54.946Z,20.40
2023-03-17T08:35:33.699Z,23.30
2023-03-17T08:38:07.055Z,20.80
2023-03-17T08:40:40.380Z,22.50
2023-03-17T08:43:13.819Z,23.10
2023-03-17T08:45:47.260Z,23.80
2023-03-17T08:48:22.188Z,21.50
2023-03-17T08:50:55.915Z,21.70
2023-03-17T08:53:29.515Z,21.00
2023-03-17T08:56:02.655Z,21.50
2023-03-17T08:58:35.678Z,21.50
2023-03-17T09:01:11.010Z,20.20
2023-03-17T09:03:44.079Z,23.60
2023-03-17T09:06:21.615Z,24.10
2023-03-17T09:08:55.816Z,27.50
2023-03-17T09:11:29.818Z,24.10
2023-03-17T09:14:04.818Z,21.30
2023-03-17T09:16:37.881Z,22.00
2023-03-17T09:19:10.710Z,22.70
2023-03-17T09:21:44.342Z,23.80
2023-03-17T09:24:17.137Z,27.00
2023-03-17T09:27:00.396Z,22.50
2023-03-17T09:29:34.443Z,25.00
2023-03-17T09:32:08.989Z,24.00
2023-03-17T09:34:43.654Z,22.70
2023-03-17T09:37:17.095Z,22.30
2023-03-17T09:39:58.241Z,22.50
2023-03-17T09:42:39.829Z,20.80
2023-03-17T09:45:23.514Z,22.90
2023-03-17T09:48:01.736Z,23.30
2023-03-17T09:50:36.732Z,21.90
2023-03-17T09:53:11.655Z,25.00
2023-03-17T09:55:44.250Z,25.30
2023-03-17T09:58:30.070Z,28.30
2023-03-17T10:01:03.327Z,30.30
2023-03-17T10:03:37.683Z,31.60
2023-03-17T10:06:29.585Z,33.50
2023-03-17T10:09:04.737Z,31.80
2023-03-17T10:11:42.358Z,32.00
2023-03-17T10:14:23.762Z,31.70
2023-03-17T10:16:59.627Z,34.90
2023-03-17T10:19:34.338Z,35.90
2023-03-17T10:22:08.630Z,35.70
2023-03-17T10:24:42.939Z,32.30
2023-03-17T10:27:15.832Z,30.30
2023-03-17T10:29:51.974Z,30.40
2023-03-17T10:32:24.826Z,30.50
2023-03-17T10:34:58.636Z,31.30
2023-03-17T10:37:36.938Z,31.80
2023-03-17T10:40:21.884Z,31.60
2023-03-17T10:42:57.107Z,28.40
2023-03-17T10:45:34.033Z,29.70
2023-03-17T10:48:10.045Z,29.00
2023-03-17T10:50:42.808Z,30.90
2023-03-17T10:53:28.523Z,30.60
2023-03-17T10:56:08.485Z,28.50
2023-03-17T10:58:45.039Z,32.60
2023-03-17T11:01:22.339Z,33.10
2023-03-17T11:03:56.055Z,32.20
2023-03-17T11:06:36.783Z,33.00
2023-03-17T11:09:12.722Z,32.70
2023-03-17T11:11:49.771Z,34.20
2023-03-17T11:14:22.588Z,33.80
2023-03-17T11:16:57.964Z,30.40
2023-03-17T11:19:36.545Z,32.40
2023-03-17T11:22:12.438Z,32.80
2023-03-17T11:24:52.877Z,32.10
2023-03-17T11:27:32.940Z,35.50
2023-03-17T11:30:18.948Z,33.30
2023-03-17T11:32:57.081Z,28.70
2023-03-17T11:35:50.722Z,32.70
2023-03-17T11:38:28.582Z,32.40
2023-03-17T11:41:27.386Z,37.00
2023-03-17T11:44:18.734Z,33.20
2023-03-17T11:46:53.437Z,35.30
2023-03-17T11:49:28.953Z,35.10
2023-03-17T11:52:16.575Z,35.60
2023-03-17T11:54:50.850Z,37.50
2023-03-17T11:57:25.828Z,35.80
2023-03-17T12:00:01.625Z,32.10
2023-03-17T12:02:40.191Z,34.60
2023-03-17T12:05:15.864Z,37.10
2023-03-17T12:07:49.905Z,33.50
2023-03-17T12:10:24.670Z,32.80
2023-03-17T12:12:59.710Z,31.00
2023-03-17T12:15:39.493Z,30.80
2023-03-17T12:18:16.780Z,29.20
2023-03-17T12:20:54.537Z,29.90
2023-03-17T12:23:30.721Z,29.60
2023-03-17T12:26:07.646Z,33.70
2023-03-17T12:28:42.822Z,34.30
2023-03-17T12:31:18.652Z,33.40
2023-03-17T12:33:54.093Z,28.80
2023-03-17T12:36:27.306Z,30.10
2023-03-17T12:39:05.733Z,27.90
2023-03-17T12:42:07.751Z,25.60
2023-03-17T12:44:47.787Z,23.60
2023-03-17T12:47:36.941Z,23.30
2023-03-17T12:50:39.585Z,23.20
2023-03-17T12:53:28.313Z,22.80
2023-03-17T12:56:02.819Z,20.80
2023-03-17T12:58:39.053Z,19.10
2023-03-17T13:01:18.985Z,23.20
2023-03-17T13:04:02.847Z,21.10
2023-03-17T13:06:40.915Z,21.50
2023-03-17T13:09:39.767Z,22.50
2023-03-17T13:13:06.803Z,21.20
2023-03-17T13:16:04.674Z,20.40
2023-03-17T13:18:54.306Z,21.70
2023-03-17T13:24:40.461Z,22.20
2023-03-17T13:27:45.344Z,26.00
2023-03-17T13:30:53.121Z,27.20
2023-03-17T13:33:30.916Z,25.80
2023-03-17T13:36:20.819Z,27.70
2023-03-17T13:39:33.568Z,30.20
2023-03-17T13:42:17.885Z,30.30
2023-03-17T13:45:20.244Z,31.60
2023-03-17T13:47:56.260Z,31.10
2023-03-17T13:50:34.425Z,27.40
2023-03-17T13:53:12.122Z,28.90
2023-03-17T13:55:46.321Z,28.70
2023-03-17T13:58:36.941Z,30.60
2023-03-17T14:01:10.621Z,31.70
2023-03-17T14:03:45.509Z,28.50
2023-03-17T14:06:18.989Z,30.60
2023-03-17T14:08:53.881Z,29.20
2023-03-17T14:11:33.405Z,27.40
2023-03-17T14:14:31.506Z,29.30
2023-03-17T14:17:13.464Z,26.80
2023-03-17T14:20:00.031Z,24.90
2023-03-17T14:22:33.074Z,25.10
2023-03-17T14:25:15.120Z,25.90
2023-03-17T14:27:49.717Z,25.60
2023-03-17T14:30:24.310Z,25.00
2023-03-17T14:33:03.456Z,25.50
2023-03-17T14:35:39.397Z,25.10
2023-03-17T14:38:20.131Z,22.50
2023-03-17T14:41:03.141Z,22.80
2023-03-17T14:43:37.383Z,25.40
2023-03-17T14:46:14.267Z,25.10
2023-03-17T14:48:50.426Z,24.80
2023-03-17T14:51:28.061Z,24.90
2023-03-17T14:54:03.830Z,24.90
2023-03-17T14:56:39.572Z,23.70
2023-03-17T14:59:20.441Z,21.50
2023-03-17T15:01:56.701Z,22.60
2023-03-17T15:04:30.776Z,23.00
2023-03-17T15:07:04.671Z,21.60
2023-03-17T15:09:41.334Z,22.40
2023-03-17T15:12:19.583Z,20.50
2023-03-17T15:14:53.089Z,21.40
2023-03-17T15:17:27.890Z,22.30
2023-03-17T15:20:05.966Z,23.30
2023-03-17T15:22:44.914Z,21.10
2023-03-17T15:25:29.039Z,21.50
2023-03-17T15:28:02.206Z,21.30
2023-03-17T15:30:46.532Z,20.40
2023-03-17T15:33:23.925Z,20.90
2023-03-17T15:36:02.030Z,22.00
2023-03-17T15:38:39.133Z,21.60
2023-03-17T15:41:14.871Z,20.70
2023-03-17T15:43:49.864Z,23.80
2023-03-17T15:46:27.747Z,23.90
2023-03-17T15:49:07.146Z,23.10
2023-03-17T15:51:40.307Z,24.80
2023-03-17T15:54:17.945Z,25.20
2023-03-17T15:56:52.047Z,25.60
2023-03-17T15:59:24.853Z,25.70
2023-03-17T16:01:58.844Z,25.80
2023-03-17T16:04:31.649Z,26.60
2023-03-17T16:07:10.883Z,27.70
2023-03-17T16:09:44.870Z,27.90
2023-03-17T16:12:17.945Z,26.30
2023-03-17T16:14:55.353Z,26.80
2023-03-17T16:17:32.505Z,27.50
2023-03-17T16:20:06.681Z,29.50
2023-03-17T16:22:43.426Z,28.90
2023-03-17T16:25:25.058Z,29.70
2023-03-17T16:28:03.197Z,29.50
2023-03-17T16:30:37.132Z,30.70
2023-03-17T16:33:16.401Z,28.60
2023-03-17T16:35:52.591Z,29.10
2023-03-17T16:38:27.983Z,31.80
2023-03-17T16:41:07.387Z,33.60
2023-03-17T16:43:40.945Z,31.40
2023-03-17T16:46:13.960Z,30.50
2023-03-17T16:48:48.561Z,31.30
2023-03-17T16:51:21.376Z,33.60
2023-03-17T16:53:55.196Z,33.10
2023-03-17T16:56:29.026Z,31.90
2023-03-17T16:59:03.115Z,32.20
2023-03-17T17:01:36.883Z,34.30
2023-03-17T17:04:13.475Z,33.80
2023-03-17T17:06:47.264Z,32.90
2023-03-17T17:09:20.518Z,33.30
2023-03-17T17:11:53.293Z,29.90
2023-03-17T17:14:28.049Z,33.10
2023-03-17T17:17:01.132Z,34.70
2023-03-17T17:19:34.328Z,30.90
2023-03-17T17:22:07.737Z,30.70
2023-03-17T17:24:41.226Z,30.70
2023-03-17T17:27:15.814Z,33.40
2023-03-17T17:29:49.071Z,35.50
2023-03-17T17:32:23.810Z,30.60
2023-03-17T17:34:57.782Z,31.10
2023-03-17T17:37:31.457Z,29.10
2023-03-17T17:40:10.335Z,30.50
2023-03-17T17:42:46.432Z,28.50
2023-03-17T17:45:22.063Z,26.60
2023-03-17T17:47:55.268Z,26.10
2023-03-17T17:50:29.570Z,27.30
2023-03-17T17:53:05.854Z,24.60
2023-03-17T17:55:39.155Z,26.10
2023-03-17T17:58:12.222Z,23.30
2023-03-17T18:00:45.507Z,24.10
2023-03-17T18:03:23.211Z,23.80
2023-03-17T18:05:56.612Z,24.80
2023-03-17T18:08:30.410Z,24.70
2023-03-17T18:11:04.370Z,22.30
2023-03-17T18:13:42.188Z,23.10
2023-03-17T18:16:16.651Z,22.00
2023-03-17T18:18:50.184Z,25.70
2023-03-17T18:21:23.549Z,26.20
2023-03-17T18:23:57.413Z,21.50
2023-03-17T18:26:30.933Z,24.70
2023-03-17T18:29:04.069Z,22.50
2023-03-17T18:31:42.262Z,23.40
2023-03-17T18:34:17.939Z,25.50
2023-03-17T18:36:57.275Z,22.60
2023-03-17T18:39:31.396Z,22.10
2023-03-17T18:42:04.564Z,23.20
2023-03-17T18:44:37.176Z,24.00
2023-03-17T18:47:16.614Z,21.60
2023-03-17T18:49:51.730Z,23.30
2023-03-17T18:52:25.124Z,22.20
2023-03-17T18:54:58.297Z,22.50
2023-03-17T18:57:31.390Z,25.10
2023-03-17T19:00:05.399Z,24.70
2023-03-17T19:02:44.110Z,21.80
2023-03-17T19:05:16.905Z,24.50
2023-03-17T19:08:03.490Z,25.70
2023-03-17T19:10:36.506Z,24.50
2023-03-17T19:13:10.345Z,24.90
2023-03-17T19:15:43.348Z,26.40
2023-03-17T19:18:18.523Z,25.80
2023-03-17T19:20:51.511Z,25.10
2023-03-17T19:23:32.886Z,27.10
2023-03-17T19:26:06.264Z,27.90
2023-03-17T19:28:39.075Z,26.40
2023-03-17T19:31:12.166Z,26.60
2023-03-17T19:33:44.918Z,27.90
2023-03-17T19:36:20.519Z,27.20
2023-03-17T19:38:57.183Z,27.60
2023-03-17T19:41:34.371Z,28.30
2023-03-17T19:44:07.091Z,28.60
2023-03-17T19:46:40.037Z,25.30
2023-03-17T19:49:14.178Z,28.90
2023-03-17T19:51:47.440Z,28.40
2023-03-17T19:54:23.506Z,26.10
2023-03-17T19:56:59.917Z,31.60
2023-03-17T19:59:37.663Z,23.20
2023-03-17T20:02:12.048Z,23.50
2023-03-17T20:04:44.901Z,27.10
2023-03-17T20:07:19.816Z,24.50
2023-03-17T20:09:54.377Z,27.70
2023-03-17T20:12:28.379Z,24.50
2023-03-17T20:15:01.777Z,26.40
2023-03-17T20:17:35.484Z,27.00
2023-03-17T20:20:18.555Z,30.00
2023-03-17T20:22:52.114Z,28.90
2023-03-17T20:25:24.981Z,27.50
2023-03-17T20:28:04.573Z,25.10
2023-03-17T20:30:37.292Z,25.70
2023-03-17T20:33:13.733Z,28.50
2023-03-17T20:35:48.232Z,27.40
2023-03-17T20:38:21.505Z,30.60
2023-03-17T20:40:54.313Z,30.30
2023-03-17T20:43:28.202Z,24.40
2023-03-17T20:46:01.721Z,25.00
2023-03-17T20:48:36.318Z,26.30
2023-03-17T20:51:15.853Z,28.20
2023-03-17T20:53:53.687Z,26.30
2023-03-17T20:56:28.593Z,24.30
2023-03-17T20:59:05.938Z,24.10
2023-03-17T21:01:40.812Z,26.70
2023-03-17T21:04:17.857Z,25.60
2023-03-17T21:06:50.785Z,21.40
2023-03-17T21:09:23.741Z,24.50
2023-03-17T21:11:56.859Z,24.30
2023-03-17T21:14:31.742Z,20.40
2023-03-17T21:17:05.349Z,22.00
2023-03-17T21:19:40.770Z,23.70
2023-03-17T21:22:13.804Z,23.80
2023-03-17T21:24:46.849Z,22.20
2023-03-17T21:27:19.582Z,19.90
2023-03-17T21:29:52.475Z,19.80
2023-03-17T21:32:25.301Z,19.80
2023-03-17T21:34:58.453Z,22.60
2023-03-17T21:37:31.415Z,17.10
2023-03-17T21:40:07.464Z,22.80
2023-03-17T21:42:41.081Z,19.50
2023-03-17T21:45:15.841Z,18.50
2023-03-17T21:47:48.792Z,18.50
2023-03-17T21:50:22.831Z,17.20
2023-03-17T21:52:55.596Z,16.10
2023-03-17T21:55:28.666Z,16.60
2023-03-17T21:58:03.929Z,16.50
2023-03-17T22:00:45.171Z,16.90
2023-03-17T22:03:18.888Z,16.00
2023-03-17T22:05:52.848Z,18.20
2023-03-17T22:08:25.788Z,15.50
2023-03-17T22:10:58.531Z,15.40
2023-03-17T22:13:31.729Z,15.90
2023-03-17T22:16:09.492Z,16.90
2023-03-17T22:18:42.236Z,15.40
2023-03-17T22:21:14.910Z,17.10
2023-03-17T22:23:50.622Z,17.00
2023-03-17T22:26:24.347Z,16.80
2023-03-17T22:29:03.005Z,17.20
2023-03-17T22:31:36.612Z,18.40
2023-03-17T22:34:10.301Z,17.10
2023-03-17T22:36:43.521Z,17.70
2023-03-17T22:39:16.522Z,16.90
2023-03-17T22:41:52.067Z,17.70
2023-03-17T22:44:25.855Z,16.20
2023-03-17T22:46:58.909Z,16.20
2023-03-17T22:49:32.417Z,20.00
2023-03-17T22:52:06.291Z,20.80
2023-03-17T22:54:41.993Z,20.50
2023-03-17T22:57:15.268Z,18.60
2023-03-17T22:59:52.628Z,20.40
2023-03-17T23:02:25.870Z,20.90
2023-03-17T23:04:59.037Z,20.90
2023-03-17T23:07:47.873Z,19.00
2023-03-17T23:10:24.830Z,20.00
2023-03-17T23:12:59.952Z,19.60
2023-03-17T23:15:34.645Z,21.60
2023-03-17T23:18:07.683Z,21.70
2023-03-17T23:20:41.011Z,21.10
2023-03-17T23:23:14.117Z,20.80
2023-03-17T23:25:47.720Z,22.70
2023-03-17T23:28:21.750Z,21.80
2023-03-17T23:30:54.702Z,20.50
2023-03-17T23:33:29.774Z,19.20
2023-03-17T23:36:02.704Z,20.50
2023-03-17T23:38:35.789Z,20.30
2023-03-17T23:41:08.926Z,18.20
2023-03-17T23:43:42.147Z,16.60
2023-03-17T23:46:15.310Z,16.50
2023-03-17T23:48:49.830Z,17.00
2023-03-17T23:51:24.372Z,16.70
2023-03-17T23:53:58.391Z,16.70
2023-03-17T23:56:33.826Z,15.80
2023-03-17T23:59:08.330Z,16.40
